sensor_id;sensor_type;location;lat;lon;timestamp;P1;durP1;ratioP1;P2;durP2;ratioP2
56181;SDS011;51963;46.052;14.544;2023-03-11T00:00:26;19.50;;;11.05;;
56181;SDS011;51963;46.052;14.544;2023-03-11T00:02:54;21.92;;;12.57;;
56181;SDS011;51963;46.052;14.544;2023-03-11T00:05:24;19.90;;;11.57;;
56181;SDS011;51963;46.052;14.544;2023-03-11T00:07:51;19.40;;;10.23;;
56181;SDS011;51963;46.052;14.544;2023-03-11T00:10:41;17.58;;;11.20;;
56181;SDS011;51963;46.052;14.544;2023-03-11T00:13:09;16.58;;;10.43;;
56181;SDS011;51963;46.052;14.544;2023-03-11T00:15:37;15.50;;;9.40;;
56181;SDS011;51963;46.052;14.544;2023-03-11T00:18:04;19.13;;;10.68;;
56181;SDS011;51963;46.052;14.544;2023-03-11T00:20:31;17.20;;;10.75;;
56181;SDS011;51963;46.052;14.544;2023-03-11T00:22:59;19.55;;;10.88;;
56181;SDS011;51963;46.052;14.544;2023-03-11T00:25:27;17.48;;;10.15;;
56181;SDS011;51963;46.052;14.544;2023-03-11T00:27:54;20.92;;;11.25;;
56181;SDS011;51963;46.052;14.544;2023-03-11T00:30:21;18.48;;;10.40;;
56181;SDS011;51963;46.052;14.544;2023-03-11T00:32:48;18.10;;;10.00;;
56181;SDS011;51963;46.052;14.544;2023-03-11T00:35:16;21.13;;;10.13;;
56181;SDS011;51963;46.052;14.544;2023-03-11T00:37:46;17.55;;;9.70;;
56181;SDS011;51963;46.052;14.544;2023-03-11T00:40:13;14.65;;;9.27;;
56181;SDS011;51963;46.052;14.544;2023-03-11T00:42:40;15.57;;;10.27;;
56181;SDS011;51963;46.052;14.544;2023-03-11T00:45:09;19.35;;;10.02;;
56181;SDS011;51963;46.052;14.544;2023-03-11T00:47:35;18.02;;;10.05;;
56181;SDS011;51963;46.052;14.544;2023-03-11T00:50:03;17.33;;;10.52;;
56181;SDS011;51963;46.052;14.544;2023-03-11T00:52:36;17.85;;;10.82;;
56181;SDS011;51963;46.052;14.544;2023-03-11T00:55:03;19.05;;;11.68;;
56181;SDS011;51963;46.052;14.544;2023-03-11T00:57:29;23.38;;;13.13;;
56181;SDS011;51963;46.052;14.544;2023-03-11T00:59:55;25.42;;;13.50;;
56181;SDS011;51963;46.052;14.544;2023-03-11T01:02:21;21.88;;;12.95;;
56181;SDS011;51963;46.052;14.544;2023-03-11T01:04:55;25.65;;;13.57;;
56181;SDS011;51963;46.052;14.544;2023-03-11T01:07:23;19.95;;;12.02;;
56181;SDS011;51963;46.052;14.544;2023-03-11T01:09:51;20.38;;;12.25;;
56181;SDS011;51963;46.052;14.544;2023-03-11T01:12:20;20.75;;;12.55;;
56181;SDS011;51963;46.052;14.544;2023-03-11T01:14:47;25.40;;;13.30;;
56181;SDS011;51963;46.052;14.544;2023-03-11T01:17:13;20.85;;;13.75;;
56181;SDS011;51963;46.052;14.544;2023-03-11T01:19:46;23.08;;;13.20;;
56181;SDS011;51963;46.052;14.544;2023-03-11T01:22:13;23.63;;;14.07;;
56181;SDS011;51963;46.052;14.544;2023-03-11T01:24:39;28.50;;;15.73;;
56181;SDS011;51963;46.052;14.544;2023-03-11T01:27:05;23.42;;;13.43;;
56181;SDS011;51963;46.052;14.544;2023-03-11T01:29:36;22.67;;;14.63;;
56181;SDS011;51963;46.052;14.544;2023-03-11T01:34:28;25.40;;;14.93;;
56181;SDS011;51963;46.052;14.544;2023-03-11T01:36:53;27.42;;;15.40;;
56181;SDS011;51963;46.052;14.544;2023-03-11T01:39:21;23.10;;;14.25;;
56181;SDS011;51963;46.052;14.544;2023-03-11T01:41:47;25.30;;;15.25;;
56181;SDS011;51963;46.052;14.544;2023-03-11T01:44:13;23.45;;;14.45;;
56181;SDS011;51963;46.052;14.544;2023-03-11T01:49:20;26.00;;;14.43;;
56181;SDS011;51963;46.052;14.544;2023-03-11T01:51:47;23.83;;;13.75;;
56181;SDS011;51963;46.052;14.544;2023-03-11T01:56:49;25.05;;;14.88;;
56181;SDS011;51963;46.052;14.544;2023-03-11T01:59:17;26.52;;;14.20;;
56181;SDS011;51963;46.052;14.544;2023-03-11T02:01:48;24.60;;;14.23;;
56181;SDS011;51963;46.052;14.544;2023-03-11T02:04:21;23.20;;;14.25;;
56181;SDS011;51963;46.052;14.544;2023-03-11T02:06:48;26.00;;;14.43;;
56181;SDS011;51963;46.052;14.544;2023-03-11T02:09:15;28.40;;;16.25;;
56181;SDS011;51963;46.052;14.544;2023-03-11T02:11:41;26.35;;;16.27;;
56181;SDS011;51963;46.052;14.544;2023-03-11T02:14:07;29.08;;;17.10;;
56181;SDS011;51963;46.052;14.544;2023-03-11T02:16:33;23.65;;;14.77;;
56181;SDS011;51963;46.052;14.544;2023-03-11T02:19:06;25.13;;;15.02;;
56181;SDS011;51963;46.052;14.544;2023-03-11T02:21:43;26.65;;;14.32;;
56181;SDS011;51963;46.052;14.544;2023-03-11T02:24:14;26.35;;;14.00;;
56181;SDS011;51963;46.052;14.544;2023-03-11T02:26:59;25.65;;;14.75;;
56181;SDS011;51963;46.052;14.544;2023-03-11T02:29:28;24.08;;;13.95;;
56181;SDS011;51963;46.052;14.544;2023-03-11T02:31:56;26.43;;;13.63;;
56181;SDS011;51963;46.052;14.544;2023-03-11T02:36:55;27.80;;;15.35;;
56181;SDS011;51963;46.052;14.544;2023-03-11T02:39:30;27.00;;;15.80;;
56181;SDS011;51963;46.052;14.544;2023-03-11T02:41:58;27.27;;;15.65;;
56181;SDS011;51963;46.052;14.544;2023-03-11T02:44:26;28.17;;;15.68;;
56181;SDS011;51963;46.052;14.544;2023-03-11T02:46:53;23.33;;;14.98;;
56181;SDS011;51963;46.052;14.544;2023-03-11T02:49:23;24.85;;;15.18;;
56181;SDS011;51963;46.052;14.544;2023-03-11T02:51:49;23.48;;;14.55;;
56181;SDS011;51963;46.052;14.544;2023-03-11T02:54:16;26.35;;;15.95;;
56181;SDS011;51963;46.052;14.544;2023-03-11T02:56:42;30.40;;;15.57;;
56181;SDS011;51963;46.052;14.544;2023-03-11T02:59:08;29.50;;;14.95;;
56181;SDS011;51963;46.052;14.544;2023-03-11T03:01:34;26.17;;;15.05;;
56181;SDS011;51963;46.052;14.544;2023-03-11T03:04:00;25.48;;;15.13;;
56181;SDS011;51963;46.052;14.544;2023-03-11T03:06:29;23.05;;;13.75;;
56181;SDS011;51963;46.052;14.544;2023-03-11T03:08:54;24.02;;;14.40;;
56181;SDS011;51963;46.052;14.544;2023-03-11T03:11:21;21.90;;;13.60;;
56181;SDS011;51963;46.052;14.544;2023-03-11T03:13:50;23.35;;;13.57;;
56181;SDS011;51963;46.052;14.544;2023-03-11T03:16:18;24.67;;;14.88;;
56181;SDS011;51963;46.052;14.544;2023-03-11T03:18:46;25.95;;;14.73;;
56181;SDS011;51963;46.052;14.544;2023-03-11T03:21:14;26.63;;;15.02;;
56181;SDS011;51963;46.052;14.544;2023-03-11T03:23:42;24.55;;;13.60;;
56181;SDS011;51963;46.052;14.544;2023-03-11T03:28:37;25.92;;;13.48;;
56181;SDS011;51963;46.052;14.544;2023-03-11T03:31:04;23.45;;;13.95;;
56181;SDS011;51963;46.052;14.544;2023-03-11T03:33:34;25.55;;;14.02;;
56181;SDS011;51963;46.052;14.544;2023-03-11T03:36:04;23.58;;;14.10;;
56181;SDS011;51963;46.052;14.544;2023-03-11T03:38:37;22.67;;;13.43;;
56181;SDS011;51963;46.052;14.544;2023-03-11T03:41:03;21.10;;;12.63;;
56181;SDS011;51963;46.052;14.544;2023-03-11T03:43:28;23.35;;;14.73;;
56181;SDS011;51963;46.052;14.544;2023-03-11T03:45:58;23.38;;;14.10;;
56181;SDS011;51963;46.052;14.544;2023-03-11T03:48:28;24.48;;;14.07;;
56181;SDS011;51963;46.052;14.544;2023-03-11T03:50:55;25.70;;;14.23;;
56181;SDS011;51963;46.052;14.544;2023-03-11T03:53:24;22.02;;;15.00;;
56181;SDS011;51963;46.052;14.544;2023-03-11T03:55:52;20.80;;;13.05;;
56181;SDS011;51963;46.052;14.544;2023-03-11T03:58:19;23.20;;;13.18;;
56181;SDS011;51963;46.052;14.544;2023-03-11T04:00:47;20.95;;;12.68;;
56181;SDS011;51963;46.052;14.544;2023-03-11T04:03:17;20.52;;;12.90;;
56181;SDS011;51963;46.052;14.544;2023-03-11T04:05:52;22.17;;;13.65;;
56181;SDS011;51963;46.052;14.544;2023-03-11T04:08:19;25.13;;;13.85;;
56181;SDS011;51963;46.052;14.544;2023-03-11T04:10:54;20.00;;;12.55;;
56181;SDS011;51963;46.052;14.544;2023-03-11T04:13:21;22.00;;;12.88;;
56181;SDS011;51963;46.052;14.544;2023-03-11T04:15:51;19.33;;;12.75;;
56181;SDS011;51963;46.052;14.544;2023-03-11T04:18:17;23.73;;;12.90;;
56181;SDS011;51963;46.052;14.544;2023-03-11T04:20:43;24.95;;;12.85;;
56181;SDS011;51963;46.052;14.544;2023-03-11T04:23:09;25.17;;;12.95;;
56181;SDS011;51963;46.052;14.544;2023-03-11T04:25:38;21.15;;;12.82;;
56181;SDS011;51963;46.052;14.544;2023-03-11T04:28:06;20.63;;;12.95;;
56181;SDS011;51963;46.052;14.544;2023-03-11T04:30:33;22.67;;;12.30;;
56181;SDS011;51963;46.052;14.544;2023-03-11T04:32:59;25.38;;;13.43;;
56181;SDS011;51963;46.052;14.544;2023-03-11T04:35:25;24.13;;;13.65;;
56181;SDS011;51963;46.052;14.544;2023-03-11T04:37:51;25.33;;;13.48;;
56181;SDS011;51963;46.052;14.544;2023-03-11T04:40:17;21.80;;;12.13;;
56181;SDS011;51963;46.052;14.544;2023-03-11T04:42:43;26.92;;;14.10;;
56181;SDS011;51963;46.052;14.544;2023-03-11T04:45:10;21.77;;;12.98;;
56181;SDS011;51963;46.052;14.544;2023-03-11T04:47:36;22.63;;;13.82;;
56181;SDS011;51963;46.052;14.544;2023-03-11T04:50:03;25.20;;;12.80;;
56181;SDS011;51963;46.052;14.544;2023-03-11T04:52:30;20.48;;;11.55;;
56181;SDS011;51963;46.052;14.544;2023-03-11T04:54:56;21.67;;;12.73;;
56181;SDS011;51963;46.052;14.544;2023-03-11T04:57:25;23.77;;;13.57;;
56181;SDS011;51963;46.052;14.544;2023-03-11T04:59:54;25.45;;;13.75;;
56181;SDS011;51963;46.052;14.544;2023-03-11T05:02:20;24.90;;;13.98;;
56181;SDS011;51963;46.052;14.544;2023-03-11T05:04:52;23.60;;;13.80;;
56181;SDS011;51963;46.052;14.544;2023-03-11T05:07:20;22.38;;;13.98;;
56181;SDS011;51963;46.052;14.544;2023-03-11T05:09:46;25.45;;;14.65;;
56181;SDS011;51963;46.052;14.544;2023-03-11T05:12:12;27.73;;;14.43;;
56181;SDS011;51963;46.052;14.544;2023-03-11T05:14:39;25.38;;;14.20;;
56181;SDS011;51963;46.052;14.544;2023-03-11T05:17:06;26.52;;;14.35;;
56181;SDS011;51963;46.052;14.544;2023-03-11T05:19:34;26.70;;;15.02;;
56181;SDS011;51963;46.052;14.544;2023-03-11T05:22:07;22.75;;;13.77;;
56181;SDS011;51963;46.052;14.544;2023-03-11T05:24:33;27.55;;;15.50;;
56181;SDS011;51963;46.052;14.544;2023-03-11T05:26:58;29.35;;;16.70;;
56181;SDS011;51963;46.052;14.544;2023-03-11T05:29:25;25.10;;;15.55;;
56181;SDS011;51963;46.052;14.544;2023-03-11T05:31:52;27.83;;;15.18;;
56181;SDS011;51963;46.052;14.544;2023-03-11T05:34:18;22.40;;;14.65;;
56181;SDS011;51963;46.052;14.544;2023-03-11T05:36:44;28.83;;;16.27;;
56181;SDS011;51963;46.052;14.544;2023-03-11T05:39:12;25.95;;;15.27;;
56181;SDS011;51963;46.052;14.544;2023-03-11T05:41:38;25.40;;;14.50;;
56181;SDS011;51963;46.052;14.544;2023-03-11T05:44:04;24.27;;;14.75;;
56181;SDS011;51963;46.052;14.544;2023-03-11T05:46:30;25.88;;;14.98;;
56181;SDS011;51963;46.052;14.544;2023-03-11T05:49:03;25.88;;;13.98;;
56181;SDS011;51963;46.052;14.544;2023-03-11T05:51:31;23.05;;;13.90;;
56181;SDS011;51963;46.052;14.544;2023-03-11T05:53:59;20.77;;;13.00;;
56181;SDS011;51963;46.052;14.544;2023-03-11T05:56:33;18.48;;;11.95;;
56181;SDS011;51963;46.052;14.544;2023-03-11T05:59:01;19.70;;;12.45;;
56181;SDS011;51963;46.052;14.544;2023-03-11T06:01:30;20.58;;;12.18;;
56181;SDS011;51963;46.052;14.544;2023-03-11T06:03:56;23.75;;;13.10;;
56181;SDS011;51963;46.052;14.544;2023-03-11T06:06:22;22.88;;;14.02;;
56181;SDS011;51963;46.052;14.544;2023-03-11T06:08:48;19.58;;;12.52;;
56181;SDS011;51963;46.052;14.544;2023-03-11T06:11:14;26.10;;;14.32;;
56181;SDS011;51963;46.052;14.544;2023-03-11T06:13:41;24.42;;;14.65;;
56181;SDS011;51963;46.052;14.544;2023-03-11T06:16:08;26.63;;;16.10;;
56181;SDS011;51963;46.052;14.544;2023-03-11T06:18:34;21.98;;;13.68;;
56181;SDS011;51963;46.052;14.544;2023-03-11T06:21:01;22.48;;;14.30;;
56181;SDS011;51963;46.052;14.544;2023-03-11T06:23:29;25.48;;;13.43;;
56181;SDS011;51963;46.052;14.544;2023-03-11T06:25:59;18.10;;;11.77;;
56181;SDS011;51963;46.052;14.544;2023-03-11T06:28:33;16.73;;;10.85;;
56181;SDS011;51963;46.052;14.544;2023-03-11T06:31:09;20.65;;;11.68;;
56181;SDS011;51963;46.052;14.544;2023-03-11T06:33:37;21.50;;;11.68;;
56181;SDS011;51963;46.052;14.544;2023-03-11T06:36:09;17.05;;;10.63;;
56181;SDS011;51963;46.052;14.544;2023-03-11T06:38:37;18.58;;;11.25;;
56181;SDS011;51963;46.052;14.544;2023-03-11T06:41:03;21.55;;;12.25;;
56181;SDS011;51963;46.052;14.544;2023-03-11T06:43:31;19.95;;;11.80;;
56181;SDS011;51963;46.052;14.544;2023-03-11T06:45:58;20.10;;;12.93;;
56181;SDS011;51963;46.052;14.544;2023-03-11T06:48:25;23.65;;;13.85;;
56181;SDS011;51963;46.052;14.544;2023-03-11T06:50:52;24.17;;;13.43;;
56181;SDS011;51963;46.052;14.544;2023-03-11T06:53:23;22.52;;;12.98;;
56181;SDS011;51963;46.052;14.544;2023-03-11T06:55:59;23.88;;;12.93;;
56181;SDS011;51963;46.052;14.544;2023-03-11T06:58:50;24.25;;;13.88;;
56181;SDS011;51963;46.052;14.544;2023-03-11T07:01:18;27.40;;;14.60;;
56181;SDS011;51963;46.052;14.544;2023-03-11T07:03:48;22.92;;;13.07;;
56181;SDS011;51963;46.052;14.544;2023-03-11T07:06:16;18.75;;;12.20;;
56181;SDS011;51963;46.052;14.544;2023-03-11T07:08:46;25.67;;;12.10;;
56181;SDS011;51963;46.052;14.544;2023-03-11T07:11:14;18.87;;;11.83;;
56181;SDS011;51963;46.052;14.544;2023-03-11T07:13:42;25.00;;;12.23;;
56181;SDS011;51963;46.052;14.544;2023-03-11T07:16:15;19.55;;;10.80;;
56181;SDS011;51963;46.052;14.544;2023-03-11T07:18:44;19.95;;;12.02;;
56181;SDS011;51963;46.052;14.544;2023-03-11T07:21:12;18.65;;;11.38;;
56181;SDS011;51963;46.052;14.544;2023-03-11T07:23:40;19.27;;;10.73;;
56181;SDS011;51963;46.052;14.544;2023-03-11T07:26:10;15.10;;;10.32;;
56181;SDS011;51963;46.052;14.544;2023-03-11T07:28:37;18.42;;;10.50;;
56181;SDS011;51963;46.052;14.544;2023-03-11T07:31:06;17.23;;;10.30;;
56181;SDS011;51963;46.052;14.544;2023-03-11T07:33:40;18.52;;;10.73;;
56181;SDS011;51963;46.052;14.544;2023-03-11T07:36:06;14.43;;;10.00;;
56181;SDS011;51963;46.052;14.544;2023-03-11T07:38:36;18.27;;;10.70;;
56181;SDS011;51963;46.052;14.544;2023-03-11T07:41:03;19.48;;;11.32;;
56181;SDS011;51963;46.052;14.544;2023-03-11T07:43:29;17.27;;;9.85;;
56181;SDS011;51963;46.052;14.544;2023-03-11T07:46:05;20.98;;;10.30;;
56181;SDS011;51963;46.052;14.544;2023-03-11T07:48:35;14.73;;;9.55;;
56181;SDS011;51963;46.052;14.544;2023-03-11T07:51:05;15.10;;;8.82;;
56181;SDS011;51963;46.052;14.544;2023-03-11T07:53:36;12.90;;;7.13;;
56181;SDS011;51963;46.052;14.544;2023-03-11T07:56:05;12.90;;;7.40;;
56181;SDS011;51963;46.052;14.544;2023-03-11T07:58:32;14.50;;;7.83;;
56181;SDS011;51963;46.052;14.544;2023-03-11T08:01:04;11.63;;;7.88;;
56181;SDS011;51963;46.052;14.544;2023-03-11T08:03:41;12.40;;;7.75;;
56181;SDS011;51963;46.052;14.544;2023-03-11T08:06:14;11.95;;;7.50;;
56181;SDS011;51963;46.052;14.544;2023-03-11T08:08:47;12.07;;;7.13;;
56181;SDS011;51963;46.052;14.544;2023-03-11T08:11:14;13.23;;;7.43;;
56181;SDS011;51963;46.052;14.544;2023-03-11T08:13:41;11.23;;;7.32;;
56181;SDS011;51963;46.052;14.544;2023-03-11T08:16:12;17.38;;;8.05;;
56181;SDS011;51963;46.052;14.544;2023-03-11T08:21:23;12.68;;;7.97;;
56181;SDS011;51963;46.052;14.544;2023-03-11T08:23:55;13.25;;;8.27;;
56181;SDS011;51963;46.052;14.544;2023-03-11T08:26:24;10.80;;;6.85;;
56181;SDS011;51963;46.052;14.544;2023-03-11T08:31:19;15.23;;;8.10;;
56181;SDS011;51963;46.052;14.544;2023-03-11T08:33:49;11.05;;;6.95;;
56181;SDS011;51963;46.052;14.544;2023-03-11T08:36:20;11.82;;;8.13;;
56181;SDS011;51963;46.052;14.544;2023-03-11T08:38:48;12.25;;;7.53;;
56181;SDS011;51963;46.052;14.544;2023-03-11T08:41:16;9.07;;;4.93;;
56181;SDS011;51963;46.052;14.544;2023-03-11T08:43:44;9.80;;;4.93;;
56181;SDS011;51963;46.052;14.544;2023-03-11T08:46:15;6.13;;;3.72;;
56181;SDS011;51963;46.052;14.544;2023-03-11T08:48:49;5.97;;;3.83;;
56181;SDS011;51963;46.052;14.544;2023-03-11T08:51:16;8.05;;;3.90;;
56181;SDS011;51963;46.052;14.544;2023-03-11T08:53:45;5.40;;;3.80;;
56181;SDS011;51963;46.052;14.544;2023-03-11T08:56:11;4.20;;;2.75;;
56181;SDS011;51963;46.052;14.544;2023-03-11T08:58:36;7.55;;;3.15;;
56181;SDS011;51963;46.052;14.544;2023-03-11T09:01:02;7.38;;;3.78;;
56181;SDS011;51963;46.052;14.544;2023-03-11T09:03:48;7.03;;;3.72;;
56181;SDS011;51963;46.052;14.544;2023-03-11T09:06:14;6.72;;;4.57;;
56181;SDS011;51963;46.052;14.544;2023-03-11T09:08:41;6.10;;;3.50;;
56181;SDS011;51963;46.052;14.544;2023-03-11T09:11:08;6.20;;;3.70;;
56181;SDS011;51963;46.052;14.544;2023-03-11T09:13:34;9.77;;;5.53;;
56181;SDS011;51963;46.052;14.544;2023-03-11T09:16:01;7.25;;;5.30;;
56181;SDS011;51963;46.052;14.544;2023-03-11T09:20:57;15.68;;;6.65;;
56181;SDS011;51963;46.052;14.544;2023-03-11T09:23:27;13.15;;;6.68;;
56181;SDS011;51963;46.052;14.544;2023-03-11T09:25:54;11.75;;;5.82;;
56181;SDS011;51963;46.052;14.544;2023-03-11T09:28:19;13.43;;;6.85;;
56181;SDS011;51963;46.052;14.544;2023-03-11T09:30:45;14.63;;;7.10;;
56181;SDS011;51963;46.052;14.544;2023-03-11T09:33:11;10.55;;;6.57;;
56181;SDS011;51963;46.052;14.544;2023-03-11T09:35:37;12.85;;;6.55;;
56181;SDS011;51963;46.052;14.544;2023-03-11T09:38:03;8.70;;;5.97;;
56181;SDS011;51963;46.052;14.544;2023-03-11T09:45:51;8.13;;;5.25;;
56181;SDS011;51963;46.052;14.544;2023-03-11T09:48:31;11.77;;;5.43;;
56181;SDS011;51963;46.052;14.544;2023-03-11T09:51:30;8.23;;;5.27;;
56181;SDS011;51963;46.052;14.544;2023-03-11T09:54:04;7.18;;;4.80;;
56181;SDS011;51963;46.052;14.544;2023-03-11T09:56:41;9.60;;;5.13;;
56181;SDS011;51963;46.052;14.544;2023-03-11T09:59:11;9.10;;;4.50;;
56181;SDS011;51963;46.052;14.544;2023-03-11T10:01:42;12.73;;;6.28;;
56181;SDS011;51963;46.052;14.544;2023-03-11T10:07:24;10.27;;;5.57;;
56181;SDS011;51963;46.052;14.544;2023-03-11T10:10:15;9.30;;;5.70;;
56181;SDS011;51963;46.052;14.544;2023-03-11T10:12:58;5.97;;;4.20;;
56181;SDS011;51963;46.052;14.544;2023-03-11T10:23:29;6.03;;;3.67;;
56181;SDS011;51963;46.052;14.544;2023-03-11T10:26:12;5.93;;;3.13;;
56181;SDS011;51963;46.052;14.544;2023-03-11T10:28:44;5.97;;;3.28;;
56181;SDS011;51963;46.052;14.544;2023-03-11T10:33:51;5.72;;;3.75;;
56181;SDS011;51963;46.052;14.544;2023-03-11T10:36:26;6.85;;;3.22;;
56181;SDS011;51963;46.052;14.544;2023-03-11T10:38:59;6.78;;;3.33;;
56181;SDS011;51963;46.052;14.544;2023-03-11T10:46:58;5.90;;;3.88;;
56181;SDS011;51963;46.052;14.544;2023-03-11T10:49:25;7.60;;;4.20;;
56181;SDS011;51963;46.052;14.544;2023-03-11T10:51:52;5.90;;;4.23;;
56181;SDS011;51963;46.052;14.544;2023-03-11T10:57:00;4.40;;;2.70;;
56181;SDS011;51963;46.052;14.544;2023-03-11T10:59:31;5.10;;;2.80;;
56181;SDS011;51963;46.052;14.544;2023-03-11T11:02:02;5.40;;;3.17;;
56181;SDS011;51963;46.052;14.544;2023-03-11T11:04:43;3.00;;;2.17;;
56181;SDS011;51963;46.052;14.544;2023-03-11T11:10:19;2.60;;;1.90;;
56181;SDS011;51963;46.052;14.544;2023-03-11T11:15:31;1.35;;;1.00;;
56181;SDS011;51963;46.052;14.544;2023-03-11T11:18:03;2.53;;;1.05;;
56181;SDS011;51963;46.052;14.544;2023-03-11T11:20:32;1.13;;;0.82;;
56181;SDS011;51963;46.052;14.544;2023-03-11T11:26:15;0.93;;;0.85;;
56181;SDS011;51963;46.052;14.544;2023-03-11T11:32:17;1.15;;;0.77;;
56181;SDS011;51963;46.052;14.544;2023-03-11T11:35:18;1.40;;;0.73;;
56181;SDS011;51963;46.052;14.544;2023-03-11T11:37:58;1.60;;;0.80;;
56181;SDS011;51963;46.052;14.544;2023-03-11T11:41:21;1.10;;;0.90;;
56181;SDS011;51963;46.052;14.544;2023-03-11T11:43:52;2.30;;;0.88;;
56181;SDS011;51963;46.052;14.544;2023-03-11T11:51:41;0.55;;;0.50;;
56181;SDS011;51963;46.052;14.544;2023-03-11T11:54:26;1.13;;;0.60;;
56181;SDS011;51963;46.052;14.544;2023-03-11T11:57:11;2.13;;;0.77;;
56181;SDS011;51963;46.052;14.544;2023-03-11T11:59:41;0.95;;;0.70;;
56181;SDS011;51963;46.052;14.544;2023-03-11T12:04:53;2.47;;;0.80;;
56181;SDS011;51963;46.052;14.544;2023-03-11T12:10:22;1.73;;;0.68;;
56181;SDS011;51963;46.052;14.544;2023-03-11T12:15:47;1.83;;;0.77;;
56181;SDS011;51963;46.052;14.544;2023-03-11T12:18:20;1.87;;;0.60;;
56181;SDS011;51963;46.052;14.544;2023-03-11T12:27:14;1.35;;;0.70;;
56181;SDS011;51963;46.052;14.544;2023-03-11T12:29:51;2.22;;;0.80;;
56181;SDS011;51963;46.052;14.544;2023-03-11T12:32:36;2.30;;;1.10;;
56181;SDS011;51963;46.052;14.544;2023-03-11T12:35:23;1.65;;;1.08;;
56181;SDS011;51963;46.052;14.544;2023-03-11T12:38:14;1.58;;;0.73;;
56181;SDS011;51963;46.052;14.544;2023-03-11T12:45:58;1.75;;;1.20;;
56181;SDS011;51963;46.052;14.544;2023-03-11T12:50:53;1.63;;;1.00;;
56181;SDS011;51963;46.052;14.544;2023-03-11T13:09:41;1.40;;;1.23;;
56181;SDS011;51963;46.052;14.544;2023-03-11T13:18:02;1.92;;;0.80;;
56181;SDS011;51963;46.052;14.544;2023-03-11T13:28:18;1.88;;;1.10;;
56181;SDS011;51963;46.052;14.544;2023-03-11T13:30:50;1.15;;;0.98;;
56181;SDS011;51963;46.052;14.544;2023-03-11T13:44:42;2.25;;;1.13;;
56181;SDS011;51963;46.052;14.544;2023-03-11T13:47:13;3.20;;;1.15;;
56181;SDS011;51963;46.052;14.544;2023-03-11T13:49:55;2.13;;;1.35;;
56181;SDS011;51963;46.052;14.544;2023-03-11T13:52:37;2.30;;;1.40;;
56181;SDS011;51963;46.052;14.544;2023-03-11T13:57:39;1.30;;;1.13;;
56181;SDS011;51963;46.052;14.544;2023-03-11T14:00:17;1.98;;;1.45;;
56181;SDS011;51963;46.052;14.544;2023-03-11T14:02:56;1.85;;;1.35;;
56181;SDS011;51963;46.052;14.544;2023-03-11T14:05:28;3.80;;;1.65;;
56181;SDS011;51963;46.052;14.544;2023-03-11T14:11:01;2.45;;;1.90;;
56181;SDS011;51963;46.052;14.544;2023-03-11T14:13:46;2.25;;;1.40;;
56181;SDS011;51963;46.052;14.544;2023-03-11T14:19:12;2.38;;;1.90;;
56181;SDS011;51963;46.052;14.544;2023-03-11T14:21:40;2.72;;;1.50;;
56181;SDS011;51963;46.052;14.544;2023-03-11T14:24:17;2.50;;;1.80;;
56181;SDS011;51963;46.052;14.544;2023-03-11T14:26:45;3.60;;;1.85;;
56181;SDS011;51963;46.052;14.544;2023-03-11T14:29:17;2.45;;;1.77;;
56181;SDS011;51963;46.052;14.544;2023-03-11T14:31:46;2.22;;;1.50;;
56181;SDS011;51963;46.052;14.544;2023-03-11T14:34:15;2.50;;;1.40;;
56181;SDS011;51963;46.052;14.544;2023-03-11T14:39:32;3.33;;;1.48;;
56181;SDS011;51963;46.052;14.544;2023-03-11T14:45:17;1.73;;;1.45;;
56181;SDS011;51963;46.052;14.544;2023-03-11T14:50:50;2.03;;;1.50;;
56181;SDS011;51963;46.052;14.544;2023-03-11T14:53:25;3.65;;;1.77;;
56181;SDS011;51963;46.052;14.544;2023-03-11T14:56:06;3.13;;;1.80;;
56181;SDS011;51963;46.052;14.544;2023-03-11T14:58:43;1.98;;;1.48;;
56181;SDS011;51963;46.052;14.544;2023-03-11T15:01:16;2.75;;;1.55;;
56181;SDS011;51963;46.052;14.544;2023-03-11T15:06:23;2.70;;;2.00;;
56181;SDS011;51963;46.052;14.544;2023-03-11T15:08:54;2.75;;;2.00;;
56181;SDS011;51963;46.052;14.544;2023-03-11T15:11:28;2.25;;;1.73;;
56181;SDS011;51963;46.052;14.544;2023-03-11T15:13:54;3.45;;;2.05;;
56181;SDS011;51963;46.052;14.544;2023-03-11T15:16:46;2.00;;;1.80;;
56181;SDS011;51963;46.052;14.544;2023-03-11T15:19:46;4.43;;;1.90;;
56181;SDS011;51963;46.052;14.544;2023-03-11T15:22:23;2.65;;;2.03;;
56181;SDS011;51963;46.052;14.544;2023-03-11T15:24:56;2.92;;;2.20;;
56181;SDS011;51963;46.052;14.544;2023-03-11T15:27:30;2.83;;;2.15;;
56181;SDS011;51963;46.052;14.544;2023-03-11T15:30:01;3.10;;;2.30;;
56181;SDS011;51963;46.052;14.544;2023-03-11T15:37:42;3.45;;;2.35;;
56181;SDS011;51963;46.052;14.544;2023-03-11T15:40:22;3.08;;;2.15;;
56181;SDS011;51963;46.052;14.544;2023-03-11T15:43:18;2.58;;;1.98;;
56181;SDS011;51963;46.052;14.544;2023-03-11T15:45:44;3.22;;;1.92;;
56181;SDS011;51963;46.052;14.544;2023-03-11T15:48:13;3.67;;;2.03;;
56181;SDS011;51963;46.052;14.544;2023-03-11T15:50:54;3.08;;;2.00;;
56181;SDS011;51963;46.052;14.544;2023-03-11T15:53:24;2.72;;;1.70;;
56181;SDS011;51963;46.052;14.544;2023-03-11T15:55:53;3.30;;;1.90;;
56181;SDS011;51963;46.052;14.544;2023-03-11T15:58:22;5.18;;;2.00;;
56181;SDS011;51963;46.052;14.544;2023-03-11T16:00:49;3.30;;;1.90;;
56181;SDS011;51963;46.052;14.544;2023-03-11T16:03:18;2.53;;;1.83;;
56181;SDS011;51963;46.052;14.544;2023-03-11T16:05:44;2.05;;;1.85;;
56181;SDS011;51963;46.052;14.544;2023-03-11T16:08:10;2.38;;;1.85;;
56181;SDS011;51963;46.052;14.544;2023-03-11T16:10:41;2.72;;;1.95;;
56181;SDS011;51963;46.052;14.544;2023-03-11T16:13:09;2.60;;;1.80;;
56181;SDS011;51963;46.052;14.544;2023-03-11T16:15:37;2.92;;;2.05;;
56181;SDS011;51963;46.052;14.544;2023-03-11T16:18:03;2.50;;;1.73;;
56181;SDS011;51963;46.052;14.544;2023-03-11T16:20:32;2.60;;;2.00;;
56181;SDS011;51963;46.052;14.544;2023-03-11T16:23:05;2.40;;;1.90;;
56181;SDS011;51963;46.052;14.544;2023-03-11T16:25:39;3.25;;;2.30;;
56181;SDS011;51963;46.052;14.544;2023-03-11T16:28:06;3.33;;;2.17;;
56181;SDS011;51963;46.052;14.544;2023-03-11T16:30:34;3.10;;;1.95;;
56181;SDS011;51963;46.052;14.544;2023-03-11T16:33:00;4.93;;;2.25;;
56181;SDS011;51963;46.052;14.544;2023-03-11T16:35:26;3.85;;;2.53;;
56181;SDS011;51963;46.052;14.544;2023-03-11T16:37:52;3.88;;;2.67;;
56181;SDS011;51963;46.052;14.544;2023-03-11T16:40:19;3.72;;;2.42;;
56181;SDS011;51963;46.052;14.544;2023-03-11T16:43:09;3.30;;;2.10;;
56181;SDS011;51963;46.052;14.544;2023-03-11T16:45:39;5.47;;;2.42;;
56181;SDS011;51963;46.052;14.544;2023-03-11T16:48:07;2.70;;;1.88;;
56181;SDS011;51963;46.052;14.544;2023-03-11T16:50:33;4.28;;;2.42;;
56181;SDS011;51963;46.052;14.544;2023-03-11T16:52:59;4.50;;;2.85;;
56181;SDS011;51963;46.052;14.544;2023-03-11T16:55:25;9.18;;;3.03;;
56181;SDS011;51963;46.052;14.544;2023-03-11T16:57:51;3.83;;;2.50;;
56181;SDS011;51963;46.052;14.544;2023-03-11T17:00:22;5.25;;;3.08;;
56181;SDS011;51963;46.052;14.544;2023-03-11T17:02:49;4.00;;;2.55;;
56181;SDS011;51963;46.052;14.544;2023-03-11T17:05:15;5.00;;;2.75;;
56181;SDS011;51963;46.052;14.544;2023-03-11T17:07:41;4.85;;;2.60;;
56181;SDS011;51963;46.052;14.544;2023-03-11T17:10:07;3.45;;;2.42;;
56181;SDS011;51963;46.052;14.544;2023-03-11T17:12:34;4.10;;;2.37;;